createdAt,value
2022-09-26T00:03:52.842Z,97.57
2022-09-26T00:08:56.098Z,97.58
2022-09-26T00:14:02.352Z,97.57
2022-09-26T00:19:05.315Z,97.93
2022-09-26T00:24:08.374Z,97.34
2022-09-26T00:29:12.806Z,97.91
2022-09-26T00:34:18.421Z,98.04
2022-09-26T00:39:20.992Z,98.17
2022-09-26T00:44:44.999Z,97.81
2022-09-26T00:49:51.089Z,97.35
2022-09-26T00:54:56.806Z,96.99
2022-09-26T01:00:03.107Z,97.55
2022-09-26T01:05:07.281Z,96.65
2022-09-26T01:10:10.438Z,96.60
2022-09-26T01:15:14.842Z,97.13
2022-09-26T01:20:26.629Z,97.60
2022-09-26T01:25:29.190Z,97.47
2022-09-26T01:30:40.147Z,97.58
2022-09-26T01:36:02.738Z,97.04
2022-09-26T01:41:33.048Z,96.97
2022-09-26T01:46:55.410Z,97.22
2022-09-26T01:52:10.552Z,96.52
2022-09-26T01:57:26.613Z,96.24
2022-09-26T02:02:36.141Z,96.13
2022-09-26T02:07:56.302Z,96.63
2022-09-26T02:13:15.055Z,96.89
2022-09-26T02:18:23.905Z,97.22
2022-09-26T02:23:26.497Z,97.75
2022-09-26T02:28:31.366Z,97.64
2022-09-26T02:33:35.246Z,97.42
2022-09-26T02:38:38.032Z,96.99
2022-09-26T02:44:10.896Z,96.66
2022-09-26T02:49:45.486Z,96.75
2022-09-26T02:55:19.935Z,96.79
2022-09-26T03:00:25.177Z,96.67
2022-09-26T03:05:31.116Z,96.52
2022-09-26T03:10:38.473Z,96.68
2022-09-26T03:15:45.374Z,96.50
2022-09-26T03:20:48.979Z,96.60
2022-09-26T03:26:05.015Z,96.67
2022-09-26T03:31:08.410Z,96.02
2022-09-26T03:36:25.625Z,95.89
2022-09-26T03:41:28.661Z,95.55
2022-09-26T03:46:41.179Z,95.46
2022-09-26T03:51:46.028Z,95.90
2022-09-26T03:56:48.688Z,96.15
2022-09-26T04:01:52.463Z,96.39
2022-09-26T04:06:55.214Z,96.42
2022-09-26T04:11:57.847Z,97.13
2022-09-26T04:17:00.418Z,96.41
2022-09-26T04:22:10.424Z,96.09
2022-09-26T04:27:13.750Z,96.63
2022-09-26T04:32:17.644Z,96.31
2022-09-26T04:37:39.065Z,95.97
2022-09-26T04:42:42.729Z,96.35
2022-09-26T04:47:45.459Z,96.37
2022-09-26T04:53:09.246Z,96.64
2022-09-26T04:58:17.201Z,96.39
2022-09-26T05:03:20.428Z,96.64
2022-09-26T05:08:24.271Z,96.74
2022-09-26T05:13:27.391Z,96.75
2022-09-26T05:18:31.668Z,95.95
2022-09-26T05:23:53.820Z,96.82
2022-09-26T05:29:06.994Z,97.01
2022-09-26T05:34:20.421Z,96.57
2022-09-26T05:39:42.626Z,96.31
2022-09-26T05:44:47.362Z,96.33
2022-09-26T05:49:50.245Z,95.96
2022-09-26T05:54:59.346Z,95.78
2022-09-26T06:00:22.339Z,96.25
2022-09-26T06:05:26.069Z,95.18
2022-09-26T06:10:51.260Z,95.54
2022-09-26T06:15:55.124Z,94.91
2022-09-26T06:20:57.828Z,94.59
2022-09-26T06:26:01.070Z,94.59
2022-09-26T06:31:17.157Z,94.68
2022-09-26T06:36:39.690Z,94.42
2022-09-26T06:41:43.060Z,95.04
2022-09-26T06:47:18.251Z,94.58
2022-09-26T06:52:21.631Z,94.50
2022-09-26T06:57:24.601Z,94.09
2022-09-26T07:02:27.467Z,93.74
2022-09-26T07:07:43.447Z,92.76
2022-09-26T07:13:01.153Z,91.99
2022-09-26T07:18:06.489Z,91.47
2022-09-26T07:23:29.849Z,91.43
2022-09-26T07:28:32.517Z,90.40
2022-09-26T07:33:35.446Z,89.54
2022-09-26T07:38:43.876Z,88.54
2022-09-26T07:44:46.234Z,87.84
2022-09-26T07:49:33.022Z,87.89
2022-09-26T07:54:36.962Z,89.54
2022-09-26T07:59:59.414Z,89.15
2022-09-26T08:05:28.089Z,88.57
2022-09-26T08:10:32.497Z,87.95
2022-09-26T08:16:04.291Z,86.80
2022-09-26T08:21:07.620Z,85.67
2022-09-26T08:26:10.711Z,84.82
2022-09-26T08:31:18.856Z,84.39
2022-09-26T08:36:22.408Z,83.44
2022-09-26T08:41:47.566Z,82.72
2022-09-26T08:47:50.482Z,82.96
2022-09-26T08:53:20.497Z,83.35
2022-09-26T08:58:52.486Z,82.90
2022-09-26T09:04:26.344Z,81.34
2022-09-26T09:09:29.906Z,81.32
2022-09-26T09:15:25.583Z,81.74
2022-09-26T09:21:31.129Z,82.62
2022-09-26T09:32:44.638Z,82.16
2022-09-26T09:37:54.065Z,82.96
2022-09-26T09:43:45.224Z,83.47
2022-09-26T09:48:48.368Z,83.51
2022-09-26T09:54:34.725Z,82.14
2022-09-26T10:00:04.693Z,82.05
2022-09-26T10:05:24.132Z,79.72
2022-09-26T10:10:46.669Z,78.72
2022-09-26T10:16:09.790Z,77.24
2022-09-26T10:21:35.390Z,76.65
2022-09-26T10:26:39.447Z,77.47
2022-09-26T10:31:43.877Z,78.43
2022-09-26T10:36:53.144Z,78.22
2022-09-26T10:41:58.692Z,77.00
2022-09-26T10:47:10.551Z,77.98
2022-09-26T10:52:50.758Z,78.40
2022-09-26T10:57:58.847Z,79.32
2022-09-26T11:03:03.677Z,79.37
2022-09-26T11:08:10.762Z,80.45
2022-09-26T11:13:24.118Z,82.62
2022-09-26T11:18:45.380Z,84.52
2022-09-26T11:24:06.475Z,84.21
2022-09-26T11:29:09.041Z,84.92
2022-09-26T11:34:27.859Z,84.17
2022-09-26T11:40:00.886Z,83.86
2022-09-26T11:45:23.021Z,85.21
2022-09-26T11:51:10.502Z,86.33
2022-09-26T11:56:39.055Z,86.69
2022-09-26T12:01:55.974Z,85.88
2022-09-26T12:07:07.683Z,85.36
2022-09-26T12:12:35.940Z,85.38
2022-09-26T12:18:17.786Z,84.65
2022-09-26T12:23:34.072Z,84.89
2022-09-26T12:29:02.857Z,84.43
2022-09-26T12:34:31.660Z,85.01
2022-09-26T12:40:10.891Z,85.07
2022-09-26T12:45:34.586Z,84.87
2022-09-26T12:50:53.317Z,83.80
2022-09-26T12:56:11.551Z,83.13
2022-09-26T13:01:23.797Z,85.55
2022-09-26T13:06:48.921Z,86.10
2022-09-26T13:12:26.611Z,86.86
2022-09-26T13:17:36.345Z,86.83
2022-09-26T13:22:58.670Z,87.58
2022-09-26T13:28:09.698Z,87.50
2022-09-26T13:33:42.984Z,85.90
2022-09-26T13:38:58.126Z,85.60
2022-09-26T13:44:29.805Z,85.52
2022-09-26T13:49:44.125Z,84.38
2022-09-26T13:55:14.904Z,84.56
2022-09-26T14:00:29.394Z,84.24
2022-09-26T14:05:48.015Z,84.16
2022-09-26T14:11:12.026Z,84.84
2022-09-26T14:16:35.922Z,84.48
2022-09-26T14:22:00.725Z,85.24
2022-09-26T14:27:04.009Z,85.42
2022-09-26T14:32:12.580Z,85.87
2022-09-26T14:37:24.483Z,86.99
2022-09-26T14:42:33.022Z,88.64
2022-09-26T14:47:43.572Z,88.63
2022-09-26T14:53:00.363Z,89.38
2022-09-26T14:58:38.342Z,90.09
2022-09-26T15:03:41.454Z,90.57
2022-09-26T15:08:44.257Z,90.60
2022-09-26T15:13:48.459Z,90.74
2022-09-26T15:19:03.474Z,91.08
2022-09-26T15:24:25.627Z,91.37
2022-09-26T15:29:32.680Z,91.55
2022-09-26T15:34:39.803Z,91.70
2022-09-26T15:39:43.122Z,91.79
2022-09-26T15:44:55.155Z,91.38
2022-09-26T15:50:10.489Z,92.04
2022-09-26T15:55:20.195Z,91.38
2022-09-26T16:00:23.012Z,91.69
2022-09-26T16:05:27.282Z,92.31
2022-09-26T16:10:33.545Z,93.30
2022-09-26T16:15:36.226Z,93.64
2022-09-26T16:20:38.834Z,93.02
2022-09-26T16:25:47.956Z,93.58
2022-09-26T16:30:59.410Z,93.59
2022-09-26T16:36:09.772Z,94.04
2022-09-26T16:41:59.526Z,94.40
2022-09-26T16:46:55.243Z,94.51
2022-09-26T16:52:21.021Z,94.73
2022-09-26T16:57:40.048Z,94.46
2022-09-26T17:02:42.851Z,94.98
2022-09-26T17:07:47.102Z,94.29
2022-09-26T17:12:53.365Z,94.51
2022-09-26T17:17:57.830Z,94.33
2022-09-26T17:23:16.881Z,95.16
2022-09-26T17:28:36.275Z,95.17
2022-09-26T17:33:42.340Z,94.98
2022-09-26T17:38:45.178Z,95.04
2022-09-26T17:43:47.753Z,94.77
2022-09-26T17:48:50.393Z,95.41
2022-09-26T17:53:53.014Z,96.38
2022-09-26T17:58:57.033Z,95.96
2022-09-26T18:04:06.460Z,95.55
2022-09-26T18:09:12.319Z,95.75
2022-09-26T18:14:17.497Z,95.60
2022-09-26T18:19:21.248Z,95.65
2022-09-26T18:24:28.783Z,95.97
2022-09-26T18:29:36.065Z,95.80
2022-09-26T18:34:38.605Z,96.35
2022-09-26T18:39:41.394Z,96.31
2022-09-26T18:44:44.122Z,96.31
2022-09-26T18:49:47.296Z,96.52
2022-09-26T18:55:09.874Z,96.73
2022-09-26T19:00:12.801Z,97.31
2022-09-26T19:05:16.539Z,97.13
2022-09-26T19:10:23.016Z,96.55
2022-09-26T19:15:25.982Z,96.81
2022-09-26T19:20:28.952Z,97.19
2022-09-26T19:25:31.699Z,97.31
2022-09-26T19:30:34.585Z,97.39
2022-09-26T19:35:42.134Z,97.87
2022-09-26T19:40:48.638Z,97.76
2022-09-26T19:45:54.306Z,97.95
2022-09-26T19:50:56.976Z,97.45
2022-09-26T19:56:00.904Z,97.49
2022-09-26T20:01:15.295Z,98.20
2022-09-26T20:06:23.711Z,98.52
2022-09-26T20:11:27.214Z,98.11
2022-09-26T20:16:34.637Z,98.45
2022-09-26T20:21:37.321Z,98.12
2022-09-26T20:26:41.004Z,98.18
2022-09-26T20:31:43.775Z,97.99
2022-09-26T20:36:49.660Z,97.83
2022-09-26T20:41:53.098Z,97.98
2022-09-26T20:47:00.149Z,98.55
2022-09-26T20:52:03.581Z,98.71
2022-09-26T20:57:06.156Z,98.48
2022-09-26T21:02:39.220Z,98.23
2022-09-26T21:07:42.466Z,98.41
2022-09-26T21:12:44.984Z,98.33
2022-09-26T21:17:49.028Z,98.28
2022-09-26T21:22:52.755Z,98.81
2022-09-26T21:28:28.974Z,98.73
2022-09-26T21:33:31.514Z,98.90
2022-09-26T21:38:34.058Z,98.78
2022-09-26T21:43:41.963Z,98.94
2022-09-26T21:48:44.522Z,98.97
2022-09-26T21:53:56.379Z,99.48
2022-09-26T21:58:59.087Z,99.42
2022-09-26T22:04:01.818Z,99.92
2022-09-26T22:09:04.553Z,99.34
2022-09-26T22:14:07.329Z,99.74
2022-09-26T22:19:10.115Z,99.84
2022-09-26T22:24:13.522Z,99.71
2022-09-26T22:29:16.357Z,99.67
2022-09-26T22:34:20.237Z,99.58
2022-09-26T22:39:22.781Z,99.71
2022-09-26T22:44:25.377Z,99.50
2022-09-26T22:49:27.992Z,100.00
2022-09-26T22:54:30.613Z,99.95
2022-09-26T22:59:33.202Z,100.00
2022-09-26T23:04:56.061Z,100.00
2022-09-26T23:10:00.348Z,100.00
2022-09-26T23:15:03.111Z,99.63
2022-09-26T23:20:06.988Z,99.70
2022-09-26T23:25:09.860Z,100.00
2022-09-26T23:30:13.415Z,99.59
2022-09-26T23:35:16.253Z,99.81
2022-09-26T23:40:18.881Z,99.75
2022-09-26T23:45:21.649Z,99.51
2022-09-26T23:50:24.427Z,99.43
2022-09-26T23:55:27.027Z,99.00
